createdAt,value
2022-11-14T00:01:10.359Z,20.92
2022-11-14T00:03:36.953Z,23.33
2022-11-14T00:06:06.942Z,23.58
2022-11-14T00:08:33.842Z,22.77
2022-11-14T00:11:00.448Z,24.67
2022-11-14T00:13:26.986Z,20.85
2022-11-14T00:15:56.322Z,22.73
2022-11-14T00:18:23.546Z,31.58
2022-11-14T00:20:51.458Z,32.00
2022-11-14T00:23:19.278Z,40.70
2022-11-14T00:25:46.685Z,35.45
2022-11-14T00:30:39.651Z,35.40
2022-11-14T00:33:06.136Z,35.90
2022-11-14T00:35:32.666Z,39.80
2022-11-14T00:37:59.157Z,28.30
2022-11-14T00:40:25.698Z,37.43
2022-11-14T00:42:52.229Z,36.80
2022-11-14T00:45:18.731Z,31.90
2022-11-14T00:47:45.221Z,28.63
2022-11-14T00:50:11.775Z,27.30
2022-11-14T00:52:38.257Z,27.07
2022-11-14T00:55:05.591Z,26.43
2022-11-14T00:59:58.521Z,25.08
2022-11-14T01:02:25.063Z,29.53
2022-11-14T01:04:51.791Z,31.73
2022-11-14T01:07:18.322Z,30.45
2022-11-14T01:09:44.923Z,20.47
2022-11-14T01:12:11.458Z,25.77
2022-11-14T01:14:39.536Z,28.50
2022-11-14T01:17:06.194Z,27.58
2022-11-14T01:19:32.803Z,27.30
2022-11-14T01:22:03.111Z,23.90
2022-11-14T01:24:33.967Z,24.77
2022-11-14T01:27:01.086Z,26.40
2022-11-14T01:29:27.825Z,23.60
2022-11-14T01:31:54.357Z,23.40
2022-11-14T01:34:21.007Z,21.30
2022-11-14T01:36:47.587Z,26.90
2022-11-14T01:39:14.174Z,30.00
2022-11-14T01:41:40.679Z,29.10
2022-11-14T01:44:18.391Z,28.87
2022-11-14T01:46:57.131Z,26.50
2022-11-14T01:49:30.115Z,24.55
2022-11-14T01:52:10.569Z,28.15
2022-11-14T01:54:45.851Z,23.33
2022-11-14T01:57:15.266Z,25.67
2022-11-14T01:59:46.261Z,23.80
2022-11-14T02:02:18.553Z,27.40
2022-11-14T02:04:53.737Z,23.58
2022-11-14T02:07:20.514Z,25.75
2022-11-14T02:09:50.919Z,28.45
2022-11-14T02:12:19.526Z,33.80
2022-11-14T02:14:49.844Z,32.05
2022-11-14T02:17:33.715Z,28.42
2022-11-14T02:20:20.469Z,25.80
2022-11-14T02:22:47.115Z,28.17
2022-11-14T02:25:17.297Z,18.83
2022-11-14T02:27:43.905Z,22.85
2022-11-14T02:30:14.793Z,15.98
2022-11-14T02:35:27.917Z,22.30
2022-11-14T02:37:54.698Z,16.20
2022-11-14T02:40:21.527Z,18.45
2022-11-14T02:42:48.175Z,26.00
2022-11-14T02:45:14.812Z,26.90
2022-11-14T02:47:41.337Z,28.05
2022-11-14T02:50:08.183Z,30.50
2022-11-14T02:52:34.686Z,28.13
2022-11-14T02:55:01.190Z,27.15
2022-11-14T02:57:27.706Z,22.33
2022-11-14T02:59:54.235Z,28.17
2022-11-14T03:02:20.947Z,21.23
2022-11-14T03:04:47.577Z,20.33
2022-11-14T03:07:14.218Z,27.17
2022-11-14T03:09:40.818Z,30.70
2022-11-14T03:12:07.446Z,23.02
2022-11-14T03:14:34.057Z,25.45
2022-11-14T03:17:00.632Z,29.75
2022-11-14T03:19:27.236Z,29.60
2022-11-14T03:21:53.869Z,23.75
2022-11-14T03:24:20.381Z,28.35
2022-11-14T03:26:46.971Z,29.33
2022-11-14T03:29:13.635Z,31.80
2022-11-14T03:31:40.159Z,33.08
2022-11-14T03:34:06.761Z,30.08
2022-11-14T03:36:34.482Z,25.48
2022-11-14T03:39:01.041Z,28.92
2022-11-14T03:41:27.555Z,23.52
2022-11-14T03:43:54.327Z,21.27
2022-11-14T03:46:20.953Z,27.15
2022-11-14T03:48:48.714Z,28.70
2022-11-14T03:51:15.510Z,28.90
2022-11-14T03:53:42.014Z,21.02
2022-11-14T03:56:08.501Z,29.13
2022-11-14T03:58:35.039Z,32.63
2022-11-14T04:01:01.621Z,24.00
2022-11-14T04:03:28.141Z,24.33
2022-11-14T04:05:54.749Z,22.43
2022-11-14T04:08:21.339Z,34.88
2022-11-14T04:10:48.970Z,27.60
2022-11-14T04:13:15.961Z,32.35
2022-11-14T04:15:42.540Z,33.72
2022-11-14T04:18:09.116Z,36.20
2022-11-14T04:20:35.674Z,36.65
2022-11-14T04:23:02.185Z,35.30
2022-11-14T04:25:28.741Z,37.50
2022-11-14T04:27:55.339Z,37.08
2022-11-14T04:30:21.859Z,21.40
2022-11-14T04:32:49.265Z,28.65
2022-11-14T04:35:17.029Z,29.98
2022-11-14T04:37:43.582Z,33.50
2022-11-14T04:40:10.464Z,30.95
2022-11-14T04:42:36.967Z,34.50
2022-11-14T04:45:03.881Z,30.20
2022-11-14T04:47:30.438Z,32.17
2022-11-14T04:49:56.939Z,35.67
2022-11-14T04:52:23.457Z,34.73
2022-11-14T04:54:49.969Z,36.23
2022-11-14T04:57:17.942Z,24.07
2022-11-14T04:59:44.683Z,33.63
2022-11-14T05:02:11.337Z,26.77
2022-11-14T05:04:38.046Z,41.30
2022-11-14T05:07:04.705Z,33.83
2022-11-14T05:09:31.381Z,23.65
2022-11-14T05:11:57.954Z,35.25
2022-11-14T05:14:24.483Z,33.15
2022-11-14T05:16:50.988Z,48.47
2022-11-14T05:19:17.500Z,31.23
2022-11-14T05:21:44.003Z,28.33
2022-11-14T05:24:10.511Z,40.33
2022-11-14T05:26:37.079Z,28.33
2022-11-14T05:29:04.137Z,81.50
2022-11-14T05:31:30.678Z,119.30
2022-11-14T05:33:57.258Z,43.83
2022-11-14T05:36:23.791Z,33.25
2022-11-14T05:38:50.408Z,53.23
2022-11-14T05:41:20.092Z,51.05
2022-11-14T05:43:47.084Z,72.30
2022-11-14T05:46:16.033Z,56.25
2022-11-14T05:48:42.622Z,40.63
2022-11-14T05:51:12.495Z,46.65
2022-11-14T05:53:39.551Z,37.03
2022-11-14T05:56:12.408Z,36.80
2022-11-14T05:58:39.719Z,45.83
2022-11-14T06:03:45.153Z,40.03
2022-11-14T06:06:15.269Z,42.88
2022-11-14T06:08:42.344Z,34.28
2022-11-14T06:11:17.510Z,33.50
2022-11-14T06:13:44.891Z,35.85
2022-11-14T06:18:39.862Z,26.92
2022-11-14T06:21:08.033Z,34.22
2022-11-14T06:23:34.597Z,31.67
2022-11-14T06:26:06.970Z,21.95
2022-11-14T06:28:33.726Z,31.08
2022-11-14T06:31:04.542Z,19.13
2022-11-14T06:33:35.527Z,48.15
2022-11-14T06:36:04.843Z,47.75
2022-11-14T06:38:33.182Z,43.17
2022-11-14T06:41:07.874Z,50.40
2022-11-14T06:43:36.046Z,60.70
2022-11-14T06:46:03.633Z,52.58
2022-11-14T06:48:31.299Z,59.60
2022-11-14T06:50:59.202Z,47.65
2022-11-14T06:53:28.183Z,55.40
2022-11-14T06:55:56.715Z,54.00
2022-11-14T06:58:25.909Z,59.25
2022-11-14T07:00:52.449Z,49.90
2022-11-14T07:03:19.090Z,46.28
2022-11-14T07:05:45.963Z,48.28
2022-11-14T07:08:18.424Z,43.20
2022-11-14T07:10:47.358Z,42.33
2022-11-14T07:13:13.905Z,44.42
2022-11-14T07:15:40.507Z,45.50
2022-11-14T07:18:07.023Z,42.80
2022-11-14T07:20:33.573Z,43.03
2022-11-14T07:23:00.111Z,43.22
2022-11-14T07:25:26.695Z,44.10
2022-11-14T07:27:53.254Z,43.93
2022-11-14T07:30:19.870Z,55.80
2022-11-14T07:32:46.425Z,37.72
2022-11-14T07:35:12.942Z,37.85
2022-11-14T07:37:39.456Z,39.60
2022-11-14T07:40:06.515Z,36.27
2022-11-14T07:42:33.049Z,31.05
2022-11-14T07:44:59.573Z,36.67
2022-11-14T07:47:26.827Z,29.43
2022-11-14T07:49:53.362Z,48.72
2022-11-14T07:52:19.840Z,54.40
2022-11-14T07:54:46.384Z,30.97
2022-11-14T07:57:12.925Z,28.27
2022-11-14T07:59:39.431Z,31.67
2022-11-14T08:02:06.418Z,33.23
2022-11-14T08:04:32.918Z,33.83
2022-11-14T08:06:59.481Z,39.95
2022-11-14T08:09:26.059Z,30.75
2022-11-14T08:11:52.667Z,29.77
2022-11-14T08:14:19.269Z,32.55
2022-11-14T08:16:45.762Z,31.20
2022-11-14T08:19:12.313Z,32.33
2022-11-14T08:21:38.849Z,26.57
2022-11-14T08:24:05.746Z,27.33
2022-11-14T08:26:34.374Z,23.55
2022-11-14T08:29:01.677Z,29.20
2022-11-14T08:31:28.407Z,24.58
2022-11-14T08:33:54.930Z,24.88
2022-11-14T08:36:21.498Z,23.60
2022-11-14T08:38:50.362Z,22.98
2022-11-14T08:41:18.147Z,22.20
2022-11-14T08:43:44.663Z,20.60
2022-11-14T08:46:11.274Z,22.25
2022-11-14T08:48:37.811Z,21.17
2022-11-14T08:51:06.335Z,20.35
2022-11-14T08:53:34.400Z,19.45
2022-11-14T08:56:01.013Z,18.55
2022-11-14T08:58:30.213Z,20.00
2022-11-14T09:01:05.261Z,18.90
2022-11-14T09:03:32.402Z,19.83
2022-11-14T09:08:25.872Z,18.20
2022-11-14T09:10:52.597Z,21.90
2022-11-14T09:13:19.179Z,22.63
2022-11-14T09:15:45.839Z,25.65
2022-11-14T09:18:12.996Z,22.60
2022-11-14T09:20:40.469Z,27.95
2022-11-14T09:23:07.653Z,27.35
2022-11-14T09:25:35.774Z,20.88
2022-11-14T09:28:07.216Z,20.60
2022-11-14T09:30:34.135Z,22.20
2022-11-14T09:33:11.144Z,23.35
2022-11-14T09:35:38.556Z,25.23
2022-11-14T09:38:10.804Z,28.00
2022-11-14T09:41:17.004Z,25.45
2022-11-14T09:44:03.430Z,27.45
2022-11-14T09:46:54.089Z,22.23
2022-11-14T09:49:35.245Z,25.58
2022-11-14T09:52:38.079Z,34.13
2022-11-14T09:55:16.746Z,27.08
2022-11-14T09:57:44.869Z,21.38
2022-11-14T10:01:03.834Z,20.52
2022-11-14T10:03:53.216Z,24.83
2022-11-14T10:06:33.754Z,19.50
2022-11-14T10:09:11.097Z,20.45
2022-11-14T10:12:00.667Z,22.73
2022-11-14T10:14:53.502Z,21.15
2022-11-14T10:17:29.066Z,20.70
2022-11-14T10:20:10.469Z,20.95
2022-11-14T10:22:56.194Z,21.77
2022-11-14T10:25:58.699Z,19.95
2022-11-14T10:28:28.525Z,21.40
2022-11-14T10:31:24.228Z,62.67
2022-11-14T10:34:14.284Z,20.90
2022-11-14T10:37:13.146Z,22.17
2022-11-14T10:39:53.763Z,19.15
2022-11-14T10:42:30.917Z,23.95
2022-11-14T10:45:04.824Z,23.90
2022-11-14T10:47:40.104Z,24.55
2022-11-14T10:50:23.506Z,19.95
2022-11-14T10:52:56.492Z,19.17
2022-11-14T10:55:49.655Z,17.45
2022-11-14T10:58:14.799Z,17.85
2022-11-14T11:00:41.368Z,18.80
2022-11-14T11:03:09.005Z,18.27
2022-11-14T11:05:50.094Z,17.92
2022-11-14T11:08:44.401Z,19.48
2022-11-14T11:11:30.064Z,21.52
2022-11-14T11:13:59.740Z,18.65
2022-11-14T11:16:28.759Z,20.02
2022-11-14T11:19:14.582Z,16.60
2022-11-14T11:21:50.448Z,17.42
2022-11-14T11:24:31.820Z,17.10
2022-11-14T11:27:27.739Z,18.30
2022-11-14T11:30:03.708Z,17.47
2022-11-14T11:32:30.291Z,16.35
2022-11-14T11:35:00.289Z,18.47
2022-11-14T11:37:54.954Z,17.42
2022-11-14T11:40:27.567Z,19.85
2022-11-14T11:43:40.342Z,20.58
2022-11-14T11:45:59.762Z,19.05
2022-11-14T11:48:38.416Z,19.08
2022-11-14T11:51:10.657Z,17.00
2022-11-14T11:53:42.626Z,16.75
2022-11-14T11:56:15.768Z,21.60
2022-11-14T11:58:52.152Z,20.05
2022-11-14T12:01:19.753Z,20.00
2022-11-14T12:03:49.054Z,22.80
2022-11-14T12:06:24.567Z,22.15
2022-11-14T12:09:09.506Z,18.83
2022-11-14T12:11:40.538Z,23.33
2022-11-14T12:14:28.580Z,21.80
2022-11-14T12:17:29.845Z,20.83
2022-11-14T12:20:14.715Z,20.35
2022-11-14T12:23:05.189Z,21.05
2022-11-14T12:25:40.632Z,21.63
2022-11-14T12:28:19.304Z,22.83
2022-11-14T12:30:51.238Z,24.45
2022-11-14T12:33:31.142Z,27.00
2022-11-14T12:36:04.406Z,24.42
2022-11-14T12:38:42.177Z,24.20
2022-11-14T12:41:09.746Z,24.77
2022-11-14T12:43:38.556Z,29.63
2022-11-14T12:46:11.647Z,32.45
2022-11-14T12:48:42.414Z,23.63
2022-11-14T12:51:28.996Z,29.80
2022-11-14T12:53:57.355Z,23.33
2022-11-14T12:56:32.689Z,24.25
2022-11-14T12:59:22.054Z,25.27
2022-11-14T13:01:56.205Z,26.92
2022-11-14T13:04:51.008Z,29.00
2022-11-14T13:07:45.282Z,23.95
2022-11-14T13:10:13.732Z,29.92
2022-11-14T13:13:02.084Z,26.13
2022-11-14T13:15:52.656Z,31.38
2022-11-14T13:18:41.937Z,33.88
2022-11-14T13:21:45.090Z,29.30
2022-11-14T13:24:21.473Z,31.65
2022-11-14T13:26:50.628Z,29.73
2022-11-14T13:29:47.549Z,32.00
2022-11-14T13:32:43.131Z,28.70
2022-11-14T13:35:47.367Z,28.80
2022-11-14T13:38:13.858Z,37.72
2022-11-14T13:40:47.125Z,46.77
2022-11-14T13:43:22.692Z,41.72
2022-11-14T13:45:53.849Z,38.00
2022-11-14T13:48:32.223Z,35.63
2022-11-14T13:51:21.812Z,27.30
2022-11-14T13:53:52.498Z,24.63
2022-11-14T13:57:03.575Z,30.73
2022-11-14T13:59:56.260Z,29.27
2022-11-14T14:02:56.274Z,35.25
2022-11-14T14:05:29.647Z,42.00
2022-11-14T14:08:14.047Z,36.25
2022-11-14T14:10:59.577Z,35.03
2022-11-14T14:13:40.331Z,63.50
2022-11-14T14:16:07.163Z,64.47
2022-11-14T14:18:53.229Z,59.20
2022-11-14T14:21:52.145Z,37.67
2022-11-14T14:24:39.813Z,37.72
2022-11-14T14:27:09.204Z,27.80
2022-11-14T14:29:53.613Z,33.75
2022-11-14T14:32:20.397Z,22.95
2022-11-14T14:34:47.028Z,19.35
2022-11-14T14:37:22.329Z,20.40
2022-11-14T14:40:08.694Z,20.45
2022-11-14T14:42:45.977Z,24.23
2022-11-14T14:45:18.939Z,22.98
2022-11-14T14:48:06.716Z,21.92
2022-11-14T14:50:39.802Z,26.05
2022-11-14T14:53:07.184Z,25.45
2022-11-14T14:58:30.610Z,25.15
2022-11-14T15:01:04.916Z,23.35
2022-11-14T15:03:37.209Z,21.70
2022-11-14T15:06:29.762Z,22.42
2022-11-14T15:08:58.159Z,27.63
2022-11-14T15:11:29.928Z,22.92
2022-11-14T15:14:00.779Z,23.45
2022-11-14T15:16:28.412Z,18.40
2022-11-14T15:18:56.987Z,23.15
2022-11-14T15:21:29.403Z,21.80
2022-11-14T15:24:21.995Z,20.95
2022-11-14T15:26:50.635Z,22.85
2022-11-14T15:29:22.850Z,24.70
2022-11-14T15:31:57.199Z,24.05
2022-11-14T15:34:23.734Z,20.95
2022-11-14T15:37:16.365Z,19.77
2022-11-14T15:39:44.699Z,22.48
2022-11-14T15:42:29.384Z,22.15
2022-11-14T15:44:56.547Z,21.40
2022-11-14T15:47:34.496Z,21.33
2022-11-14T15:50:22.255Z,19.85
2022-11-14T15:52:53.896Z,23.27
2022-11-14T15:55:23.798Z,20.30
2022-11-14T15:58:06.700Z,21.15
2022-11-14T16:00:44.477Z,23.30
2022-11-14T16:03:12.595Z,23.55
2022-11-14T16:05:39.146Z,19.60
2022-11-14T16:08:05.723Z,21.20
2022-11-14T16:10:32.360Z,19.60
2022-11-14T16:12:58.852Z,19.15
2022-11-14T16:15:25.363Z,24.10
2022-11-14T16:17:51.968Z,21.67
2022-11-14T16:20:21.118Z,19.63
2022-11-14T16:22:49.436Z,25.50
2022-11-14T16:25:25.588Z,23.13
2022-11-14T16:27:52.365Z,25.20
2022-11-14T16:30:20.793Z,26.30
2022-11-14T16:32:49.128Z,23.13
2022-11-14T16:35:21.890Z,20.05
2022-11-14T16:37:48.622Z,24.25
2022-11-14T16:40:16.535Z,25.88
2022-11-14T16:42:43.319Z,23.20
2022-11-14T16:45:10.234Z,21.50
2022-11-14T16:47:36.865Z,23.25
2022-11-14T16:50:04.165Z,28.30
2022-11-14T16:52:30.965Z,26.20
2022-11-14T16:54:57.494Z,24.60
2022-11-14T16:57:24.671Z,31.53
2022-11-14T16:59:54.047Z,30.05
2022-11-14T17:02:21.232Z,27.38
2022-11-14T17:04:48.008Z,24.70
2022-11-14T17:07:16.722Z,19.60
2022-11-14T17:09:46.722Z,24.45
2022-11-14T17:12:13.342Z,21.30
2022-11-14T17:14:40.211Z,22.65
2022-11-14T17:17:06.751Z,29.13
2022-11-14T17:19:33.282Z,23.53
2022-11-14T17:21:59.763Z,22.97
2022-11-14T17:24:31.233Z,23.40
2022-11-14T17:26:58.145Z,26.45
2022-11-14T17:29:24.677Z,24.70
2022-11-14T17:31:51.268Z,24.23
2022-11-14T17:34:17.819Z,24.30
2022-11-14T17:36:44.419Z,22.90
2022-11-14T17:39:10.987Z,22.92
2022-11-14T17:41:38.677Z,28.52
2022-11-14T17:44:05.285Z,22.05
2022-11-14T17:46:32.122Z,23.05
2022-11-14T17:48:59.112Z,16.92
2022-11-14T17:51:25.676Z,23.23
2022-11-14T17:53:52.547Z,25.58
2022-11-14T17:56:24.415Z,28.70
2022-11-14T17:58:53.368Z,22.80
2022-11-14T18:01:23.165Z,22.55
2022-11-14T18:03:50.364Z,23.33
2022-11-14T18:06:21.847Z,25.63
2022-11-14T18:08:48.868Z,25.08
2022-11-14T18:11:17.079Z,24.52
2022-11-14T18:13:44.175Z,25.80
2022-11-14T18:16:17.137Z,28.45
2022-11-14T18:18:43.797Z,23.15
2022-11-14T18:21:13.735Z,26.85
2022-11-14T18:23:40.766Z,23.48
2022-11-14T18:26:10.298Z,26.50
2022-11-14T18:28:37.173Z,26.45
2022-11-14T18:31:04.690Z,24.42
2022-11-14T18:33:31.246Z,25.60
2022-11-14T18:35:59.017Z,25.03
2022-11-14T18:38:25.567Z,24.55
2022-11-14T18:40:57.093Z,23.30
2022-11-14T18:43:24.105Z,26.60
2022-11-14T18:45:51.120Z,24.70
2022-11-14T18:48:17.695Z,24.83
2022-11-14T18:50:44.266Z,24.63
2022-11-14T18:53:10.784Z,26.07
2022-11-14T18:55:41.236Z,25.30
2022-11-14T18:58:07.859Z,25.77
2022-11-14T19:00:34.525Z,21.52
2022-11-14T19:03:06.019Z,24.73
2022-11-14T19:05:35.939Z,27.13
2022-11-14T19:08:03.328Z,25.67
2022-11-14T19:12:56.249Z,26.30
2022-11-14T19:15:22.766Z,24.90
2022-11-14T19:17:49.466Z,29.27
2022-11-14T19:20:16.597Z,26.60
2022-11-14T19:22:43.246Z,26.55
2022-11-14T19:25:09.771Z,35.60
2022-11-14T19:27:36.608Z,33.70
2022-11-14T19:30:03.403Z,28.73
2022-11-14T19:32:29.900Z,36.63
2022-11-14T19:34:56.463Z,32.23
2022-11-14T19:37:23.022Z,31.23
2022-11-14T19:39:52.448Z,32.72
2022-11-14T19:42:19.019Z,31.17
2022-11-14T19:44:45.561Z,36.03
2022-11-14T19:47:12.109Z,27.40
2022-11-14T19:49:38.686Z,28.97
2022-11-14T19:52:05.405Z,29.85
2022-11-14T19:54:31.934Z,18.48
2022-11-14T19:56:58.552Z,27.50
2022-11-14T19:59:27.936Z,31.65
2022-11-14T20:01:55.547Z,32.97
2022-11-14T20:04:22.343Z,24.60
2022-11-14T20:06:48.916Z,19.93
2022-11-14T20:09:16.502Z,25.55
2022-11-14T20:11:43.060Z,25.50
2022-11-14T20:14:12.111Z,27.27
2022-11-14T20:16:38.725Z,27.73
2022-11-14T20:19:05.475Z,23.98
2022-11-14T20:21:33.979Z,24.15
2022-11-14T20:24:01.033Z,25.00
2022-11-14T20:26:27.816Z,23.95
2022-11-14T20:28:54.855Z,22.17
2022-11-14T20:31:27.257Z,24.00
2022-11-14T20:33:55.330Z,26.10
2022-11-14T20:36:32.016Z,25.98
2022-11-14T20:39:05.995Z,28.23
2022-11-14T20:41:32.839Z,29.73
2022-11-14T20:44:01.003Z,28.33
2022-11-14T20:46:27.615Z,25.00
2022-11-14T20:48:54.238Z,29.70
2022-11-14T20:51:22.730Z,26.17
2022-11-14T20:53:51.096Z,24.05
2022-11-14T20:56:18.237Z,27.35
2022-11-14T20:58:47.117Z,27.52
2022-11-14T21:01:14.447Z,24.65
2022-11-14T21:06:11.300Z,20.85
2022-11-14T21:08:38.273Z,23.23
2022-11-14T21:11:07.808Z,30.67
2022-11-14T21:13:56.397Z,25.85
2022-11-14T21:16:37.300Z,23.67
2022-11-14T21:19:04.973Z,25.77
2022-11-14T21:21:34.658Z,24.63
2022-11-14T21:24:01.695Z,21.88
2022-11-14T21:26:31.572Z,25.55
2022-11-14T21:29:01.271Z,27.95
2022-11-14T21:31:31.718Z,22.85
2022-11-14T21:34:00.783Z,27.58
2022-11-14T21:36:46.044Z,28.50
2022-11-14T21:39:14.847Z,28.60
2022-11-14T21:41:42.359Z,27.23
2022-11-14T21:44:13.041Z,26.30
2022-11-14T21:46:40.045Z,25.88
2022-11-14T21:49:06.560Z,18.23
2022-11-14T21:51:33.102Z,28.67
2022-11-14T21:53:59.928Z,25.30
2022-11-14T21:56:28.570Z,27.05
2022-11-14T21:59:12.728Z,24.55
2022-11-14T22:01:59.274Z,25.13
2022-11-14T22:04:26.455Z,24.35
2022-11-14T22:06:53.212Z,23.15
2022-11-14T22:09:20.159Z,25.45
2022-11-14T22:11:47.038Z,27.88
2022-11-14T22:14:13.670Z,26.75
2022-11-14T22:16:40.384Z,21.83
2022-11-14T22:19:06.956Z,26.45
2022-11-14T22:21:34.620Z,24.42
2022-11-14T22:24:01.197Z,23.77
2022-11-14T22:26:27.757Z,21.75
2022-11-14T22:28:54.260Z,24.33
2022-11-14T22:31:22.799Z,24.53
2022-11-14T22:33:52.206Z,21.48
2022-11-14T22:36:24.098Z,24.25
2022-11-14T22:38:53.193Z,22.23
2022-11-14T22:41:29.175Z,25.00
2022-11-14T22:43:58.932Z,25.55
2022-11-14T22:46:27.227Z,26.25
2022-11-14T22:48:54.511Z,31.77
2022-11-14T22:51:23.310Z,27.08
2022-11-14T22:53:52.789Z,22.67
2022-11-14T22:56:21.761Z,25.08
2022-11-14T22:58:49.053Z,24.52
2022-11-14T23:01:24.175Z,23.17
2022-11-14T23:04:09.535Z,21.90
2022-11-14T23:06:36.195Z,23.27
2022-11-14T23:09:04.111Z,25.33
2022-11-14T23:11:32.239Z,27.90
2022-11-14T23:14:00.304Z,27.10
2022-11-14T23:16:32.349Z,28.58
2022-11-14T23:19:01.772Z,24.23
2022-11-14T23:21:31.179Z,23.85
2022-11-14T23:24:07.040Z,25.08
2022-11-14T23:26:33.689Z,24.85
2022-11-14T23:29:00.784Z,27.10
2022-11-14T23:31:27.389Z,27.80
2022-11-14T23:33:56.038Z,24.20
2022-11-14T23:36:22.696Z,24.52
2022-11-14T23:38:52.147Z,23.83
2022-11-14T23:41:21.331Z,24.73
2022-11-14T23:43:48.517Z,27.38
2022-11-14T23:46:15.423Z,23.80
2022-11-14T23:48:42.343Z,24.85
2022-11-14T23:51:09.773Z,28.20
2022-11-14T23:53:36.478Z,22.52
2022-11-14T23:56:03.382Z,19.77
2022-11-14T23:58:30.387Z,27.15
